createdAt,value
2022-12-03T00:01:24.031Z,98279.94
2022-12-03T00:04:26.670Z,98279.69
2022-12-03T00:07:29.393Z,98271.63
2022-12-03T00:10:32.140Z,98279.72
2022-12-03T00:13:38.473Z,98277.97
2022-12-03T00:16:46.160Z,98272.69
2022-12-03T00:19:53.634Z,98281.31
2022-12-03T00:22:58.616Z,98284.63
2022-12-03T00:26:03.562Z,98286.84
2022-12-03T00:29:10.527Z,98282.03
2022-12-03T00:32:15.062Z,98284.44
2022-12-03T00:35:20.361Z,98279.59
2022-12-03T00:38:25.182Z,98282.78
2022-12-03T00:41:32.358Z,98276.41
2022-12-03T00:44:38.585Z,98291.31
2022-12-03T00:47:43.461Z,98287.72
2022-12-03T00:50:48.111Z,98286.25
2022-12-03T00:53:52.923Z,98290.88
2022-12-03T00:56:57.679Z,98289.38
2022-12-03T01:00:05.407Z,98290.31
2022-12-03T01:03:10.857Z,98285.84
2022-12-03T01:06:15.362Z,98286.66
2022-12-03T01:09:19.736Z,98293.56
2022-12-03T01:12:24.652Z,98289.84
2022-12-03T01:15:33.767Z,98291.13
2022-12-03T01:18:38.574Z,98291.50
2022-12-03T01:21:43.715Z,98291.13
2022-12-03T01:24:48.357Z,98292.31
2022-12-03T01:27:53.410Z,98292.88
2022-12-03T01:31:27.547Z,98289.19
2022-12-03T01:34:32.224Z,98290.59
2022-12-03T01:37:37.196Z,98292.19
2022-12-03T01:40:41.898Z,98293.59
2022-12-03T01:43:46.887Z,98294.97
2022-12-03T01:46:55.314Z,98290.59
2022-12-03T01:50:05.171Z,98284.97
2022-12-03T01:53:13.567Z,98283.47
2022-12-03T01:56:19.934Z,98292.47
2022-12-03T01:59:31.819Z,98292.81
2022-12-03T02:02:38.209Z,98296.38
2022-12-03T02:05:43.168Z,98297.41
2022-12-03T02:08:50.327Z,98303.31
2022-12-03T02:11:54.809Z,98297.78
2022-12-03T02:14:59.620Z,98301.47
2022-12-03T02:18:05.751Z,98295.00
2022-12-03T02:21:16.491Z,98301.56
2022-12-03T02:24:30.365Z,98290.72
2022-12-03T02:27:36.525Z,98293.19
2022-12-03T02:30:41.939Z,98293.97
2022-12-03T02:33:46.916Z,98287.41
2022-12-03T02:36:51.323Z,98282.91
2022-12-03T02:39:58.718Z,98281.19
2022-12-03T02:43:07.939Z,98289.16
2022-12-03T02:46:12.882Z,98289.72
2022-12-03T02:49:17.847Z,98285.22
2022-12-03T02:52:22.875Z,98295.38
2022-12-03T02:55:33.309Z,98292.25
2022-12-03T02:58:44.189Z,98288.81
2022-12-03T03:01:48.947Z,98293.41
2022-12-03T03:04:53.762Z,98299.09
2022-12-03T03:08:01.096Z,98289.25
2022-12-03T03:11:06.208Z,98286.38
2022-12-03T03:14:12.328Z,98287.88
2022-12-03T03:17:17.522Z,98294.91
2022-12-03T03:20:22.546Z,98287.75
2022-12-03T03:23:27.618Z,98288.00
2022-12-03T03:26:32.028Z,98297.44
2022-12-03T03:29:38.693Z,98287.97
2022-12-03T03:32:44.216Z,98291.47
2022-12-03T03:35:50.572Z,98283.69
2022-12-03T03:38:55.756Z,98283.59
2022-12-03T03:42:00.764Z,98283.13
2022-12-03T03:45:08.380Z,98290.97
2022-12-03T03:48:15.209Z,98275.75
2022-12-03T03:51:21.552Z,98276.13
2022-12-03T03:54:26.823Z,98280.50
2022-12-03T03:57:31.912Z,98283.72
2022-12-03T04:00:39.630Z,98283.59
2022-12-03T04:03:44.730Z,98271.13
2022-12-03T04:06:49.080Z,98277.38
2022-12-03T04:09:53.512Z,98267.22
2022-12-03T04:12:56.890Z,98274.72
2022-12-03T04:16:03.478Z,98269.41
2022-12-03T04:19:08.117Z,98263.28
2022-12-03T04:22:29.362Z,98267.56
2022-12-03T04:25:50.961Z,98262.25
2022-12-03T04:28:55.805Z,98260.63
2022-12-03T04:32:18.970Z,98265.47
2022-12-03T04:35:40.350Z,98254.72
2022-12-03T04:38:45.012Z,98260.97
2022-12-03T04:41:49.453Z,98270.22
2022-12-03T04:44:56.288Z,98260.28
2022-12-03T04:48:02.414Z,98260.03
2022-12-03T04:51:07.308Z,98252.66
2022-12-03T04:54:12.029Z,98262.84
2022-12-03T04:57:16.723Z,98261.22
2022-12-03T05:00:21.578Z,98262.50
2022-12-03T05:03:27.640Z,98260.88
2022-12-03T05:06:32.138Z,98255.56
2022-12-03T05:09:36.812Z,98256.94
2022-12-03T05:12:41.570Z,98252.78
2022-12-03T05:15:46.205Z,98241.94
2022-12-03T05:18:52.058Z,98251.97
2022-12-03T05:21:56.348Z,98253.81
2022-12-03T05:25:01.049Z,98256.81
2022-12-03T05:28:05.879Z,98260.84
2022-12-03T05:31:10.651Z,98246.09
2022-12-03T05:34:17.263Z,98246.44
2022-12-03T05:37:21.983Z,98238.81
2022-12-03T05:40:27.077Z,98235.72
2022-12-03T05:43:30.495Z,98229.00
2022-12-03T05:46:35.191Z,98226.59
2022-12-03T05:49:41.520Z,98230.84
2022-12-03T05:52:46.343Z,98232.47
2022-12-03T05:55:51.648Z,98235.94
2022-12-03T05:58:57.243Z,98230.66
2022-12-03T06:02:02.110Z,98233.72
2022-12-03T06:05:09.754Z,98235.59
2022-12-03T06:08:14.208Z,98243.91
2022-12-03T06:11:18.820Z,98237.31
2022-12-03T06:14:23.068Z,98231.19
2022-12-03T06:17:27.594Z,98247.94
2022-12-03T06:20:34.098Z,98231.06
2022-12-03T06:23:44.972Z,98243.53
2022-12-03T06:26:49.371Z,98247.59
2022-12-03T06:29:53.724Z,98254.03
2022-12-03T06:32:58.305Z,98257.72
2022-12-03T06:36:05.126Z,98255.06
2022-12-03T06:39:09.478Z,98251.72
2022-12-03T06:42:13.694Z,98266.06
2022-12-03T06:45:18.386Z,98268.47
2022-12-03T06:48:23.078Z,98263.75
2022-12-03T06:51:29.058Z,98274.38
2022-12-03T06:54:33.389Z,98273.78
2022-12-03T06:57:38.128Z,98278.03
2022-12-03T07:00:42.386Z,98275.63
2022-12-03T07:03:47.048Z,98275.06
2022-12-03T07:06:54.804Z,98268.81
2022-12-03T07:09:59.716Z,98269.63
2022-12-03T07:13:04.289Z,98256.69
2022-12-03T07:16:12.111Z,98253.34
2022-12-03T07:19:17.243Z,98243.31
2022-12-03T07:22:23.464Z,98242.59
2022-12-03T07:25:28.126Z,98245.00
2022-12-03T07:28:32.760Z,98251.13
2022-12-03T07:31:37.136Z,98250.47
2022-12-03T07:34:42.428Z,98259.69
2022-12-03T07:37:50.322Z,98250.91
2022-12-03T07:40:55.166Z,98250.91
2022-12-03T07:43:59.912Z,98247.09
2022-12-03T07:47:04.665Z,98245.38
2022-12-03T07:50:10.846Z,98247.31
2022-12-03T07:53:17.585Z,98247.81
2022-12-03T07:56:25.377Z,98242.94
2022-12-03T07:59:30.637Z,98244.09
2022-12-03T08:02:35.823Z,98239.94
2022-12-03T08:05:49.373Z,98239.84
2022-12-03T08:09:02.341Z,98249.53
2022-12-03T08:12:14.983Z,98250.69
2022-12-03T08:15:26.030Z,98249.19
2022-12-03T08:18:31.666Z,98248.13
2022-12-03T08:21:38.756Z,98253.19
2022-12-03T08:24:45.272Z,98248.13
2022-12-03T08:28:45.983Z,98251.25
2022-12-03T08:31:55.168Z,98257.84
2022-12-03T08:35:00.140Z,98256.44
2022-12-03T08:38:12.117Z,98251.72
2022-12-03T08:41:40.326Z,98251.63
2022-12-03T08:44:45.125Z,98243.88
2022-12-03T08:47:50.060Z,98246.88
2022-12-03T08:50:57.379Z,98244.78
2022-12-03T08:54:09.773Z,98240.75
2022-12-03T08:57:30.118Z,98240.06
2022-12-03T09:00:34.760Z,98234.94
2022-12-03T09:03:40.727Z,98236.88
2022-12-03T09:06:45.550Z,98243.47
2022-12-03T09:09:51.025Z,98240.03
2022-12-03T09:12:58.500Z,98249.38
2022-12-03T09:16:03.606Z,98248.22
2022-12-03T09:19:08.435Z,98247.88
2022-12-03T09:22:13.688Z,98248.59
2022-12-03T09:25:19.190Z,98246.41
2022-12-03T09:28:25.823Z,98260.16
2022-12-03T09:31:30.941Z,98255.53
2022-12-03T09:34:35.534Z,98250.91
2022-12-03T09:37:40.583Z,98259.13
2022-12-03T09:40:45.469Z,98249.41
2022-12-03T09:44:10.801Z,98244.69
2022-12-03T09:47:17.353Z,98234.56
2022-12-03T09:50:23.810Z,98235.47
2022-12-03T09:53:30.370Z,98228.91
2022-12-03T09:56:37.829Z,98218.28
2022-12-03T09:59:44.179Z,98220.81
2022-12-03T10:02:50.664Z,98223.94
2022-12-03T10:05:56.781Z,98228.31
2022-12-03T10:09:01.753Z,98227.50
2022-12-03T10:12:09.963Z,98230.41
2022-12-03T10:15:18.598Z,98227.41
2022-12-03T10:18:30.480Z,98232.84
2022-12-03T10:21:39.830Z,98231.78
2022-12-03T10:24:45.443Z,98223.25
2022-12-03T10:28:03.144Z,98226.03
2022-12-03T10:31:10.706Z,98224.75
2022-12-03T10:34:26.944Z,98219.09
2022-12-03T10:37:32.312Z,98227.63
2022-12-03T10:40:41.067Z,98216.56
2022-12-03T10:43:46.106Z,98219.81
2022-12-03T10:47:10.707Z,98214.94
2022-12-03T10:50:23.467Z,98220.00
2022-12-03T10:53:32.015Z,98210.34
2022-12-03T10:56:37.221Z,98201.44
2022-12-03T10:59:43.700Z,98197.41
2022-12-03T11:03:05.225Z,98189.34
2022-12-03T11:06:15.695Z,98184.84
2022-12-03T11:09:27.188Z,98182.78
2022-12-03T11:12:35.252Z,98178.38
2022-12-03T11:15:47.474Z,98172.97
2022-12-03T11:19:04.435Z,98174.91
2022-12-03T11:22:41.782Z,98175.28
2022-12-03T11:25:50.917Z,98174.72
2022-12-03T11:28:56.939Z,98174.13
2022-12-03T11:32:01.973Z,98168.25
2022-12-03T11:35:14.922Z,98158.22
2022-12-03T11:38:48.899Z,98162.22
2022-12-03T11:42:30.810Z,98168.13
2022-12-03T11:45:38.338Z,98160.97
2022-12-03T11:48:46.367Z,98161.31
2022-12-03T11:51:54.893Z,98152.44
2022-12-03T11:55:04.527Z,98152.78
2022-12-03T11:58:19.570Z,98152.53
2022-12-03T12:01:38.945Z,98151.03
2022-12-03T12:04:48.585Z,98143.91
2022-12-03T12:07:55.227Z,98133.06
2022-12-03T12:11:00.970Z,98134.53
2022-12-03T12:14:06.742Z,98138.47
2022-12-03T12:17:36.301Z,98127.97
2022-12-03T12:20:41.173Z,98125.31
2022-12-03T12:23:47.767Z,98121.53
2022-12-03T12:26:53.303Z,98115.53
2022-12-03T12:30:00.540Z,98119.09
2022-12-03T12:33:16.263Z,98115.28
2022-12-03T12:36:21.187Z,98106.75
2022-12-03T12:39:29.004Z,98108.59
2022-12-03T12:42:36.248Z,98111.50
2022-12-03T12:45:43.631Z,98109.19
2022-12-03T12:48:48.636Z,98089.00
2022-12-03T12:51:53.685Z,98091.09
2022-12-03T12:55:04.851Z,98092.25
2022-12-03T12:58:16.131Z,98090.41
2022-12-03T13:01:26.068Z,98088.91
2022-12-03T13:04:33.185Z,98092.56
2022-12-03T13:07:38.044Z,98090.59
2022-12-03T13:10:44.091Z,98087.75
2022-12-03T13:13:49.305Z,98087.06
2022-12-03T13:16:57.045Z,98088.78
2022-12-03T13:20:07.884Z,98089.38
2022-12-03T13:23:28.812Z,98077.16
2022-12-03T13:26:42.057Z,98071.38
2022-12-03T13:29:48.158Z,98066.75
2022-12-03T13:32:55.870Z,98079.81
2022-12-03T13:35:59.938Z,98075.78
2022-12-03T13:39:11.237Z,98084.06
2022-12-03T13:42:42.342Z,98071.84
2022-12-03T13:45:49.696Z,98081.78
2022-12-03T13:48:58.686Z,98076.03
2022-12-03T13:52:11.153Z,98069.22
2022-12-03T13:55:24.532Z,98073.56
2022-12-03T13:58:30.985Z,98077.03
2022-12-03T14:01:36.550Z,98069.31
2022-12-03T14:04:41.946Z,98069.97
2022-12-03T14:07:46.528Z,98072.06
2022-12-03T14:10:55.552Z,98062.59
2022-12-03T14:14:07.939Z,98061.91
2022-12-03T14:17:14.566Z,98060.19
2022-12-03T14:20:19.938Z,98065.38
2022-12-03T14:23:25.754Z,98062.03
2022-12-03T14:26:30.545Z,98075.28
2022-12-03T14:29:36.963Z,98062.72
2022-12-03T14:32:43.058Z,98070.31
2022-12-03T14:35:47.633Z,98073.44
2022-12-03T14:38:52.406Z,98075.53
2022-12-03T14:42:15.626Z,98077.50
2022-12-03T14:45:23.366Z,98087.06
2022-12-03T14:48:29.973Z,98095.94
2022-12-03T14:51:34.621Z,98097.00
2022-12-03T14:54:42.893Z,98092.50
2022-12-03T14:57:47.783Z,98094.34
2022-12-03T15:00:54.166Z,98089.63
2022-12-03T15:03:58.816Z,98088.22
2022-12-03T15:07:03.962Z,98089.47
2022-12-03T15:10:09.691Z,98094.59
2022-12-03T15:13:14.726Z,98081.31
2022-12-03T15:16:22.888Z,98088.81
2022-12-03T15:19:27.709Z,98081.31
2022-12-03T15:22:32.574Z,98085.34
2022-12-03T15:25:38.013Z,98077.28
2022-12-03T15:28:47.928Z,98075.44
2022-12-03T15:31:54.761Z,98091.94
2022-12-03T15:35:00.277Z,98085.00
2022-12-03T15:38:05.427Z,98082.25
2022-12-03T15:41:29.526Z,98090.97
2022-12-03T15:44:37.909Z,98088.47
2022-12-03T15:47:44.988Z,98094.22
2022-12-03T15:50:50.657Z,98084.56
2022-12-03T15:53:55.745Z,98081.09
2022-12-03T15:57:00.558Z,98071.63
2022-12-03T16:00:06.710Z,98077.72
2022-12-03T16:03:13.290Z,98081.53
2022-12-03T16:06:20.064Z,98073.56
2022-12-03T16:09:27.389Z,98083.16
2022-12-03T16:12:32.446Z,98077.28
2022-12-03T16:15:36.992Z,98068.75
2022-12-03T16:18:44.632Z,98080.16
2022-12-03T16:21:49.494Z,98070.59
2022-12-03T16:24:54.370Z,98075.19
2022-12-03T16:27:59.524Z,98076.00
2022-12-03T16:31:05.077Z,98077.03
2022-12-03T16:34:13.452Z,98079.00
2022-12-03T16:37:18.126Z,98076.03
2022-12-03T16:40:22.638Z,98080.75
2022-12-03T16:43:27.881Z,98076.81
2022-12-03T16:46:32.983Z,98079.34
2022-12-03T16:49:39.371Z,98084.31
2022-12-03T16:52:43.644Z,98074.16
2022-12-03T16:55:48.151Z,98079.34
2022-12-03T16:58:53.781Z,98071.72
2022-12-03T17:01:58.211Z,98069.53
2022-12-03T17:05:04.219Z,98072.41
2022-12-03T17:08:07.439Z,98071.38
2022-12-03T17:11:10.536Z,98070.06
2022-12-03T17:14:13.449Z,98058.81
2022-12-03T17:17:16.320Z,98055.91
2022-12-03T17:20:21.279Z,98053.50
2022-12-03T17:23:24.608Z,98054.19
2022-12-03T17:26:27.649Z,98054.66
2022-12-03T17:29:30.646Z,98047.75
2022-12-03T17:32:33.635Z,98049.94
2022-12-03T17:35:37.745Z,98041.50
2022-12-03T17:38:40.617Z,98043.25
2022-12-03T17:41:43.569Z,98048.69
2022-12-03T17:44:46.613Z,98053.28
2022-12-03T17:47:49.588Z,98049.13
2022-12-03T17:50:55.340Z,98049.72
2022-12-03T17:53:58.151Z,98051.66
2022-12-03T17:57:01.102Z,98040.75
2022-12-03T18:00:05.476Z,98045.47
2022-12-03T18:03:08.297Z,98047.19
2022-12-03T18:06:12.561Z,98053.25
2022-12-03T18:09:15.597Z,98049.09
2022-12-03T18:12:18.516Z,98050.38
2022-12-03T18:15:21.352Z,98044.28
2022-12-03T18:18:24.185Z,98052.66
2022-12-03T18:21:29.133Z,98035.78
2022-12-03T18:24:31.998Z,98043.41
2022-12-03T18:27:35.176Z,98040.50
2022-12-03T18:30:38.098Z,98027.50
2022-12-03T18:33:41.120Z,98028.19
2022-12-03T18:36:45.515Z,98031.41
2022-12-03T18:39:48.978Z,98032.91
2022-12-03T18:42:52.032Z,98036.09
2022-12-03T18:45:55.089Z,98032.78
2022-12-03T18:48:58.048Z,98031.41
2022-12-03T18:52:02.464Z,98033.34
2022-12-03T18:55:06.353Z,98020.00
2022-12-03T18:58:09.415Z,98024.50
2022-12-03T19:01:16.188Z,98020.72
2022-12-03T19:04:20.493Z,98020.22
2022-12-03T19:07:24.659Z,98022.41
2022-12-03T19:10:28.366Z,98026.34
2022-12-03T19:13:31.302Z,98019.28
2022-12-03T19:16:39.730Z,98018.59
2022-12-03T19:19:42.736Z,98019.03
2022-12-03T19:22:47.181Z,98014.44
2022-12-03T19:25:56.945Z,98022.84
2022-12-03T19:28:59.795Z,98022.84
2022-12-03T19:32:09.986Z,98012.50
2022-12-03T19:35:21.446Z,98025.75
2022-12-03T19:38:27.177Z,98014.09
2022-12-03T19:41:31.435Z,98016.09
2022-12-03T19:44:34.717Z,98018.16
2022-12-03T19:47:38.114Z,98013.91
2022-12-03T19:50:58.389Z,98002.50
2022-12-03T19:54:14.082Z,98013.06
2022-12-03T19:57:23.086Z,98010.28
2022-12-03T20:00:26.281Z,98016.06
2022-12-03T20:03:29.040Z,98012.34
2022-12-03T20:06:34.901Z,98014.41
2022-12-03T20:09:39.057Z,98015.00
2022-12-03T20:12:41.714Z,98015.59
2022-12-03T20:15:44.436Z,98023.41
2022-12-03T20:18:57.410Z,98018.22
2022-12-03T20:22:02.705Z,98007.53
2022-12-03T20:25:17.759Z,97997.88
2022-12-03T20:28:20.550Z,98006.38
2022-12-03T20:31:24.784Z,98013.50
2022-12-03T20:34:27.547Z,98015.97
2022-12-03T20:37:30.319Z,97999.59
2022-12-03T20:40:37.765Z,98011.78
2022-12-03T20:43:40.695Z,97996.59
2022-12-03T20:46:43.495Z,98002.13
2022-12-03T20:49:46.333Z,98003.94
2022-12-03T20:53:09.756Z,97995.44
2022-12-03T20:56:18.590Z,97994.84
2022-12-03T20:59:24.050Z,97992.13
2022-12-03T21:02:28.066Z,97986.81
2022-12-03T21:05:30.848Z,97988.31
2022-12-03T21:08:41.064Z,97994.19
2022-12-03T21:11:46.485Z,97989.22
2022-12-03T21:14:49.392Z,97985.22
2022-12-03T21:17:52.246Z,97977.59
2022-12-03T21:20:55.014Z,97974.94
2022-12-03T21:23:58.141Z,97984.28
2022-12-03T21:27:02.291Z,97982.44
2022-12-03T21:30:06.160Z,97975.09
2022-12-03T21:33:08.986Z,97973.13
2022-12-03T21:36:14.144Z,97975.69
2022-12-03T21:39:16.844Z,97979.81
2022-12-03T21:42:34.368Z,97974.72
2022-12-03T21:45:40.793Z,97980.16
2022-12-03T21:48:43.640Z,97984.19
2022-12-03T21:51:46.732Z,97977.59
2022-12-03T21:54:49.566Z,97970.00
2022-12-03T21:57:53.968Z,97959.41
2022-12-03T22:00:56.761Z,97954.25
2022-12-03T22:03:59.678Z,97965.75
2022-12-03T22:07:02.451Z,97960.69
2022-12-03T22:10:06.113Z,97960.69
2022-12-03T22:13:10.331Z,97957.72
2022-12-03T22:16:15.507Z,97956.56
2022-12-03T22:19:18.280Z,97955.84
2022-12-03T22:22:21.475Z,97967.25
2022-12-03T22:25:24.185Z,97953.00
2022-12-03T22:28:29.470Z,97952.03
2022-12-03T22:31:32.311Z,97947.56
2022-12-03T22:34:35.127Z,97937.78
2022-12-03T22:37:37.857Z,97942.03
2022-12-03T22:40:40.815Z,97939.63
2022-12-03T22:43:46.050Z,97943.53
2022-12-03T22:46:48.834Z,97943.75
2022-12-03T22:49:51.649Z,97950.09
2022-12-03T22:52:54.336Z,97944.81
2022-12-03T22:55:58.475Z,97931.44
2022-12-03T22:59:02.790Z,97931.00
2022-12-03T23:02:05.538Z,97930.84
2022-12-03T23:05:08.596Z,97924.06
2022-12-03T23:08:13.691Z,97910.25
2022-12-03T23:11:17.202Z,97916.13
2022-12-03T23:14:21.679Z,97908.53
2022-12-03T23:17:24.614Z,97906.56
2022-12-03T23:20:30.063Z,97914.84
2022-12-03T23:23:32.893Z,97920.84
2022-12-03T23:26:37.314Z,97914.28
2022-12-03T23:29:41.690Z,97900.94
2022-12-03T23:32:44.937Z,97909.63
2022-12-03T23:35:47.644Z,97928.56
2022-12-03T23:38:51.124Z,97915.78
2022-12-03T23:41:53.810Z,97918.31
2022-12-03T23:44:57.896Z,97916.25
2022-12-03T23:48:00.730Z,97906.56
2022-12-03T23:51:08.019Z,97913.00
2022-12-03T23:54:12.124Z,97918.41
2022-12-03T23:57:15.916Z,97916.31
